KRME/RME METAR and TAF weather

Enter ICAO airport designator
Station Type Date Time Source
KRME METAR 2020/07/13 13:53 UTC NOAA

KRME 131353Z VRB03KT 10SM SCT015 BKN021 BKN033 23/19 A2982 RMK AO2 SLP094 T02330189


Station Type Date Time Source
KRME Decoded METAR 2020/07/13 13:53 UTC NOAA

GRIFFISS AIRFIELD, NY, United States (KRME) 43-14N 075-24W
Jul 13, 2020 - 09:53 AM EDT / 2020.07.13 1353 UTC
Wind: Variable at 3 MPH (3 KT):0
Visibility: 10 mile(s):0
Sky conditions: mostly cloudy
Temperature: 73.9 F (23.3 C)
Dew Point: 66.0 F (18.9 C)
Relative Humidity: 76%
Pressure (altimeter): 29.82 in. Hg (1009 hPa)
ob: KRME 131353Z VRB03KT 10SM SCT015 BKN021 BKN033 23/19 A2982 RMK AO2 SLP094 T02330189
cycle: 14

Station Type Date Time Source
KRME TAF 2020/07/13 12:27 UTC NOAA

TAF KRME 131124Z 1312/1412 25004KT P6SM BKN015 BKN180
FM131300 28008KT P6SM BKN050
FM140000 28005KT P6SM BKN100

Example: see airport list